sensor_id;sensor_type;location;lat;lon;timestamp;pressure;altitude;pressure_sealevel;temperature;humidity
63405;BME280;49541;57.840;12.306;2023-04-07T00:00:18;101595.22;;;1.17;67.77
63405;BME280;49541;57.840;12.306;2023-04-07T00:05:18;101598.13;;;1.08;67.56
63405;BME280;49541;57.840;12.306;2023-04-07T00:10:19;101594.84;;;1.01;67.81
63405;BME280;49541;57.840;12.306;2023-04-07T00:15:19;101590.59;;;0.69;68.20
63405;BME280;49541;57.840;12.306;2023-04-07T00:20:19;101601.25;;;0.93;67.43
63405;BME280;49541;57.840;12.306;2023-04-07T00:25:20;101598.81;;;0.87;67.58
63405;BME280;49541;57.840;12.306;2023-04-07T00:30:20;101604.69;;;0.65;67.27
63405;BME280;49541;57.840;12.306;2023-04-07T00:35:20;101605.00;;;0.54;67.49
63405;BME280;49541;57.840;12.306;2023-04-07T00:40:20;101596.44;;;0.16;68.03
63405;BME280;49541;57.840;12.306;2023-04-07T00:45:20;101604.16;;;0.21;68.54
63405;BME280;49541;57.840;12.306;2023-04-07T00:50:21;101609.09;;;0.01;68.28
63405;BME280;49541;57.840;12.306;2023-04-07T00:55:21;101602.06;;;0.03;68.64
63405;BME280;49541;57.840;12.306;2023-04-07T01:00:21;101607.63;;;-0.10;69.04
63405;BME280;49541;57.840;12.306;2023-04-07T01:05:37;101609.25;;;-0.06;68.80
63405;BME280;49541;57.840;12.306;2023-04-07T01:11:02;101613.97;;;-0.20;68.86
63405;BME280;49541;57.840;12.306;2023-04-07T01:16:08;101608.41;;;-0.40;69.44
63405;BME280;49541;57.840;12.306;2023-04-07T01:21:12;101620.13;;;-0.21;69.34
63405;BME280;49541;57.840;12.306;2023-04-07T01:31:13;101618.72;;;-0.34;69.62
63405;BME280;49541;57.840;12.306;2023-04-07T01:36:15;101621.53;;;-0.42;70.12
63405;BME280;49541;57.840;12.306;2023-04-07T01:41:15;101617.97;;;-0.39;69.64
63405;BME280;49541;57.840;12.306;2023-04-07T01:46:17;101625.16;;;-0.13;69.47
63405;BME280;49541;57.840;12.306;2023-04-07T01:51:18;101632.22;;;-0.51;69.01
63405;BME280;49541;57.840;12.306;2023-04-07T01:56:18;101623.56;;;-0.55;69.45
63405;BME280;49541;57.840;12.306;2023-04-07T02:01:19;101627.38;;;-0.68;69.70
63405;BME280;49541;57.840;12.306;2023-04-07T02:06:21;101620.16;;;-0.58;69.66
63405;BME280;49541;57.840;12.306;2023-04-07T02:11:22;101631.06;;;-0.41;69.34
63405;BME280;49541;57.840;12.306;2023-04-07T02:16:23;101630.22;;;-0.42;68.34
63405;BME280;49541;57.840;12.306;2023-04-07T02:21:25;101636.69;;;-0.56;68.79
63405;BME280;49541;57.840;12.306;2023-04-07T02:26:26;101638.38;;;-0.54;68.64
63405;BME280;49541;57.840;12.306;2023-04-07T02:31:26;101646.22;;;-0.93;69.59
63405;BME280;49541;57.840;12.306;2023-04-07T02:36:26;101646.41;;;-0.99;69.97
63405;BME280;49541;57.840;12.306;2023-04-07T02:41:27;101649.50;;;-0.81;69.30
63405;BME280;49541;57.840;12.306;2023-04-07T02:46:27;101658.03;;;-1.14;70.44
63405;BME280;49541;57.840;12.306;2023-04-07T02:51:27;101644.81;;;-1.08;69.98
63405;BME280;49541;57.840;12.306;2023-04-07T02:56:28;101651.91;;;-1.55;70.06
63405;BME280;49541;57.840;12.306;2023-04-07T03:01:28;101655.78;;;-1.31;70.36
63405;BME280;49541;57.840;12.306;2023-04-07T03:06:28;101654.31;;;-1.44;70.85
63405;BME280;49541;57.840;12.306;2023-04-07T03:11:28;101657.06;;;-1.53;70.97
63405;BME280;49541;57.840;12.306;2023-04-07T03:16:28;101661.53;;;-1.58;71.29
63405;BME280;49541;57.840;12.306;2023-04-07T03:21:29;101665.22;;;-1.69;71.82
63405;BME280;49541;57.840;12.306;2023-04-07T03:26:30;101671.19;;;-1.63;72.40
63405;BME280;49541;57.840;12.306;2023-04-07T03:31:31;101667.59;;;-1.56;72.48
63405;BME280;49541;57.840;12.306;2023-04-07T03:36:31;101668.34;;;-1.50;71.42
63405;BME280;49541;57.840;12.306;2023-04-07T03:41:31;101678.69;;;-1.45;71.48
63405;BME280;49541;57.840;12.306;2023-04-07T03:46:31;101679.09;;;-1.65;71.86
63405;BME280;49541;57.840;12.306;2023-04-07T03:51:31;101686.38;;;-1.82;71.26
63405;BME280;49541;57.840;12.306;2023-04-07T03:56:33;101692.88;;;-1.58;71.26
63405;BME280;49541;57.840;12.306;2023-04-07T04:01:33;101693.09;;;-1.71;72.11
63405;BME280;49541;57.840;12.306;2023-04-07T04:06:33;101685.84;;;-2.03;72.54
63405;BME280;49541;57.840;12.306;2023-04-07T04:11:33;101691.28;;;-1.66;71.88
63405;BME280;49541;57.840;12.306;2023-04-07T04:16:33;101694.25;;;-1.86;71.13
63405;BME280;49541;57.840;12.306;2023-04-07T04:21:36;101700.09;;;-1.73;71.37
63405;BME280;49541;57.840;12.306;2023-04-07T04:26:36;101700.38;;;-1.88;72.72
63405;BME280;49541;57.840;12.306;2023-04-07T04:31:37;101690.97;;;-1.98;72.78
63405;BME280;49541;57.840;12.306;2023-04-07T04:36:37;101700.06;;;-1.70;72.03
63405;BME280;49541;57.840;12.306;2023-04-07T04:41:38;101696.56;;;-1.69;71.37
63405;BME280;49541;57.840;12.306;2023-04-07T04:46:38;101705.84;;;-1.54;70.93
63405;BME280;49541;57.840;12.306;2023-04-07T04:51:38;101713.91;;;-1.65;70.73
63405;BME280;49541;57.840;12.306;2023-04-07T04:56:38;101718.28;;;-1.67;70.61
63405;BME280;49541;57.840;12.306;2023-04-07T05:01:42;101727.16;;;-1.75;72.07
63405;BME280;49541;57.840;12.306;2023-04-07T05:06:42;101732.94;;;-1.59;71.75
63405;BME280;49541;57.840;12.306;2023-04-07T05:11:43;101736.72;;;-1.28;70.74
63405;BME280;49541;57.840;12.306;2023-04-07T05:16:43;101739.53;;;-1.38;71.32
63405;BME280;49541;57.840;12.306;2023-04-07T05:21:43;101741.06;;;-1.27;71.12
63405;BME280;49541;57.840;12.306;2023-04-07T05:26:43;101745.38;;;-1.24;71.50
63405;BME280;49541;57.840;12.306;2023-04-07T05:31:44;101748.38;;;-0.99;71.91
63405;BME280;49541;57.840;12.306;2023-04-07T05:36:44;101747.69;;;-1.09;71.57
63405;BME280;49541;57.840;12.306;2023-04-07T05:41:44;101756.69;;;-1.24;72.89
63405;BME280;49541;57.840;12.306;2023-04-07T05:46:45;101757.66;;;-1.29;74.38
63405;BME280;49541;57.840;12.306;2023-04-07T05:51:45;101757.56;;;-0.79;74.71
63405;BME280;49541;57.840;12.306;2023-04-07T05:56:45;101763.06;;;-0.95;76.42
63405;BME280;49541;57.840;12.306;2023-04-07T06:01:46;101762.84;;;-0.83;78.22
63405;BME280;49541;57.840;12.306;2023-04-07T06:06:46;101770.44;;;-0.70;78.65
63405;BME280;49541;57.840;12.306;2023-04-07T06:11:46;101779.66;;;-0.54;77.97
63405;BME280;49541;57.840;12.306;2023-04-07T06:16:46;101781.88;;;-0.34;78.01
63405;BME280;49541;57.840;12.306;2023-04-07T06:21:47;101785.53;;;-0.04;78.64
63405;BME280;49541;57.840;12.306;2023-04-07T06:26:47;101787.94;;;-0.32;79.48
63405;BME280;49541;57.840;12.306;2023-04-07T06:31:47;101789.91;;;-0.04;80.51
63405;BME280;49541;57.840;12.306;2023-04-07T06:36:47;101785.81;;;0.22;79.17
63405;BME280;49541;57.840;12.306;2023-04-07T06:41:48;101791.00;;;0.23;78.76
63405;BME280;49541;57.840;12.306;2023-04-07T06:46:48;101793.88;;;0.48;79.05
63405;BME280;49541;57.840;12.306;2023-04-07T06:51:52;101799.50;;;0.67;78.91
63405;BME280;49541;57.840;12.306;2023-04-07T06:56:52;101794.91;;;0.75;78.20
63405;BME280;49541;57.840;12.306;2023-04-07T07:01:52;101802.53;;;0.85;78.67
63405;BME280;49541;57.840;12.306;2023-04-07T07:06:52;101812.34;;;1.09;77.92
63405;BME280;49541;57.840;12.306;2023-04-07T07:11:54;101808.47;;;1.22;77.45
63405;BME280;49541;57.840;12.306;2023-04-07T07:16:55;101803.22;;;1.22;78.45
63405;BME280;49541;57.840;12.306;2023-04-07T07:21:55;101811.28;;;1.16;77.22
63405;BME280;49541;57.840;12.306;2023-04-07T07:26:55;101810.03;;;1.30;77.88
63405;BME280;49541;57.840;12.306;2023-04-07T07:31:56;101804.03;;;1.84;77.37
63405;BME280;49541;57.840;12.306;2023-04-07T07:36:56;101811.56;;;1.95;76.92
63405;BME280;49541;57.840;12.306;2023-04-07T07:41:56;101818.66;;;2.19;75.65
63405;BME280;49541;57.840;12.306;2023-04-07T07:46:56;101817.47;;;2.30;75.48
63405;BME280;49541;57.840;12.306;2023-04-07T07:51:56;101826.38;;;3.02;74.13
63405;BME280;49541;57.840;12.306;2023-04-07T07:56:58;101826.81;;;3.15;72.15
63405;BME280;49541;57.840;12.306;2023-04-07T08:01:58;101837.22;;;3.18;71.13
63405;BME280;49541;57.840;12.306;2023-04-07T08:06:59;101835.75;;;3.35;70.02
63405;BME280;49541;57.840;12.306;2023-04-07T08:11:59;101836.50;;;3.38;70.06
63405;BME280;49541;57.840;12.306;2023-04-07T08:16:59;101852.50;;;3.81;68.64
63405;BME280;49541;57.840;12.306;2023-04-07T08:22:00;101849.38;;;4.15;67.62
63405;BME280;49541;57.840;12.306;2023-04-07T08:27:00;101845.38;;;4.27;67.29
63405;BME280;49541;57.840;12.306;2023-04-07T08:32:00;101845.00;;;4.36;66.85
63405;BME280;49541;57.840;12.306;2023-04-07T08:37:00;101851.72;;;4.65;66.21
63405;BME280;49541;57.840;12.306;2023-04-07T08:42:01;101852.00;;;5.00;64.82
63405;BME280;49541;57.840;12.306;2023-04-07T08:47:01;101852.09;;;5.38;64.30
63405;BME280;49541;57.840;12.306;2023-04-07T08:52:03;101853.13;;;5.73;63.49
63405;BME280;49541;57.840;12.306;2023-04-07T08:57:06;101848.28;;;5.64;63.24
63405;BME280;49541;57.840;12.306;2023-04-07T09:02:07;101854.41;;;6.22;62.54
63405;BME280;49541;57.840;12.306;2023-04-07T09:07:07;101849.78;;;6.44;61.61
63405;BME280;49541;57.840;12.306;2023-04-07T09:12:08;101850.19;;;6.54;60.38
63405;BME280;49541;57.840;12.306;2023-04-07T09:17:08;101848.88;;;6.80;60.55
63405;BME280;49541;57.840;12.306;2023-04-07T09:22:08;101837.19;;;7.02;60.60
63405;BME280;49541;57.840;12.306;2023-04-07T09:27:15;101838.75;;;7.55;59.72
63405;BME280;49541;57.840;12.306;2023-04-07T09:32:22;101835.50;;;7.66;57.53
63405;BME280;49541;57.840;12.306;2023-04-07T09:37:33;101841.72;;;7.98;56.83
63405;BME280;49541;57.840;12.306;2023-04-07T09:42:34;101829.78;;;8.21;54.93
63405;BME280;49541;57.840;12.306;2023-04-07T09:47:36;101836.69;;;8.24;54.94
63405;BME280;49541;57.840;12.306;2023-04-07T09:52:50;101830.09;;;8.63;53.63
63405;BME280;49541;57.840;12.306;2023-04-07T09:57:53;101832.59;;;8.94;54.16
63405;BME280;49541;57.840;12.306;2023-04-07T10:02:57;101830.66;;;9.41;51.18
63405;BME280;49541;57.840;12.306;2023-04-07T10:07:57;101837.19;;;9.35;50.94
63405;BME280;49541;57.840;12.306;2023-04-07T10:12:59;101824.28;;;9.58;49.61
63405;BME280;49541;57.840;12.306;2023-04-07T10:18:00;101830.34;;;9.60;49.62
63405;BME280;49541;57.840;12.306;2023-04-07T10:23:05;101825.75;;;9.76;49.13
63405;BME280;49541;57.840;12.306;2023-04-07T10:28:08;101827.63;;;10.30;48.12
63405;BME280;49541;57.840;12.306;2023-04-07T10:33:08;101822.81;;;10.62;47.78
63405;BME280;49541;57.840;12.306;2023-04-07T10:38:12;101822.75;;;10.90;46.86
63405;BME280;49541;57.840;12.306;2023-04-07T10:43:12;101813.38;;;11.10;46.54
63405;BME280;49541;57.840;12.306;2023-04-07T10:48:33;101823.19;;;11.22;46.20
63405;BME280;49541;57.840;12.306;2023-04-07T10:53:33;101822.09;;;11.37;45.14
63405;BME280;49541;57.840;12.306;2023-04-07T10:58:33;101831.63;;;11.78;43.66
63405;BME280;49541;57.840;12.306;2023-04-07T11:03:34;101823.97;;;12.11;42.92
63405;BME280;49541;57.840;12.306;2023-04-07T11:13:39;101814.53;;;12.42;42.25
63405;BME280;49541;57.840;12.306;2023-04-07T11:18:39;101816.25;;;13.01;41.59
63405;BME280;49541;57.840;12.306;2023-04-07T11:23:40;101815.94;;;13.17;40.34
63405;BME280;49541;57.840;12.306;2023-04-07T11:28:44;101823.81;;;13.18;40.22
63405;BME280;49541;57.840;12.306;2023-04-07T11:33:49;101826.56;;;13.41;38.25
63405;BME280;49541;57.840;12.306;2023-04-07T11:38:50;101820.84;;;13.45;38.30
63405;BME280;49541;57.840;12.306;2023-04-07T11:44:04;101813.97;;;13.86;38.10
63405;BME280;49541;57.840;12.306;2023-04-07T11:49:11;101819.78;;;14.03;37.16
63405;BME280;49541;57.840;12.306;2023-04-07T11:54:11;101816.06;;;14.59;37.03
63405;BME280;49541;57.840;12.306;2023-04-07T11:59:19;101828.88;;;14.44;36.87
63405;BME280;49541;57.840;12.306;2023-04-07T12:04:20;101819.34;;;14.83;35.19
63405;BME280;49541;57.840;12.306;2023-04-07T12:09:28;101824.78;;;15.54;34.85
63405;BME280;49541;57.840;12.306;2023-04-07T12:14:28;101823.25;;;16.22;33.92
63405;BME280;49541;57.840;12.306;2023-04-07T12:19:29;101824.69;;;16.55;33.55
63405;BME280;49541;57.840;12.306;2023-04-07T12:24:31;101822.69;;;16.76;33.10
63405;BME280;49541;57.840;12.306;2023-04-07T12:29:32;101815.03;;;16.91;32.60
63405;BME280;49541;57.840;12.306;2023-04-07T12:34:33;101821.38;;;15.93;34.27
63405;BME280;49541;57.840;12.306;2023-04-07T12:39:36;101815.00;;;14.92;34.18
63405;BME280;49541;57.840;12.306;2023-04-07T12:44:37;101814.16;;;14.91;34.68
63405;BME280;49541;57.840;12.306;2023-04-07T12:49:37;101815.00;;;14.18;35.71
63405;BME280;49541;57.840;12.306;2023-04-07T12:54:37;101819.81;;;13.80;36.54
63405;BME280;49541;57.840;12.306;2023-04-07T12:59:38;101821.66;;;13.80;36.84
63405;BME280;49541;57.840;12.306;2023-04-07T13:04:38;101815.16;;;13.93;36.46
63405;BME280;49541;57.840;12.306;2023-04-07T13:09:42;101812.38;;;13.95;37.24
63405;BME280;49541;57.840;12.306;2023-04-07T13:14:42;101822.09;;;14.40;36.88
63405;BME280;49541;57.840;12.306;2023-04-07T13:19:42;101805.50;;;14.13;34.77
63405;BME280;49541;57.840;12.306;2023-04-07T13:24:45;101816.91;;;13.83;36.16
63405;BME280;49541;57.840;12.306;2023-04-07T13:29:46;101812.81;;;14.00;36.64
63405;BME280;49541;57.840;12.306;2023-04-07T13:34:46;101815.16;;;13.93;36.29
63405;BME280;49541;57.840;12.306;2023-04-07T13:39:46;101819.63;;;13.38;35.98
63405;BME280;49541;57.840;12.306;2023-04-07T13:44:47;101817.69;;;13.40;35.15
63405;BME280;49541;57.840;12.306;2023-04-07T13:49:49;101823.97;;;13.28;36.25
63405;BME280;49541;57.840;12.306;2023-04-07T13:54:50;101827.41;;;13.30;35.70
63405;BME280;49541;57.840;12.306;2023-04-07T13:59:51;101826.53;;;13.52;36.31
63405;BME280;49541;57.840;12.306;2023-04-07T14:04:52;101823.59;;;13.21;35.25
63405;BME280;49541;57.840;12.306;2023-04-07T14:09:52;101831.09;;;13.16;34.80
63405;BME280;49541;57.840;12.306;2023-04-07T14:14:53;101828.78;;;13.00;35.48
63405;BME280;49541;57.840;12.306;2023-04-07T14:19:53;101829.41;;;13.04;35.74
63405;BME280;49541;57.840;12.306;2023-04-07T14:24:54;101834.81;;;12.80;34.86
63405;BME280;49541;57.840;12.306;2023-04-07T14:29:55;101839.97;;;13.05;35.03
63405;BME280;49541;57.840;12.306;2023-04-07T14:34:56;101833.66;;;12.60;36.04
63405;BME280;49541;57.840;12.306;2023-04-07T14:39:58;101831.78;;;12.49;36.68
63405;BME280;49541;57.840;12.306;2023-04-07T14:44:58;101837.66;;;12.06;36.17
63405;BME280;49541;57.840;12.306;2023-04-07T14:49:58;101825.91;;;12.08;37.77
63405;BME280;49541;57.840;12.306;2023-04-07T14:54:59;101826.81;;;11.46;37.94
63405;BME280;49541;57.840;12.306;2023-04-07T14:59:59;101830.53;;;11.31;38.06
63405;BME280;49541;57.840;12.306;2023-04-07T15:04:59;101831.91;;;11.50;36.02
63405;BME280;49541;57.840;12.306;2023-04-07T15:10:00;101834.28;;;11.28;37.51
63405;BME280;49541;57.840;12.306;2023-04-07T15:15:00;101844.50;;;11.09;36.89
63405;BME280;49541;57.840;12.306;2023-04-07T15:20:00;101840.34;;;10.92;38.03
63405;BME280;49541;57.840;12.306;2023-04-07T15:25:00;101844.28;;;10.74;39.22
63405;BME280;49541;57.840;12.306;2023-04-07T15:30:02;101837.34;;;10.84;38.15
63405;BME280;49541;57.840;12.306;2023-04-07T15:35:02;101830.78;;;10.50;38.91
63405;BME280;49541;57.840;12.306;2023-04-07T15:40:03;101842.34;;;10.36;39.23
63405;BME280;49541;57.840;12.306;2023-04-07T15:45:03;101836.84;;;10.24;39.95
63405;BME280;49541;57.840;12.306;2023-04-07T15:50:04;101841.91;;;10.15;40.86
63405;BME280;49541;57.840;12.306;2023-04-07T15:55:04;101835.44;;;10.19;41.17
63405;BME280;49541;57.840;12.306;2023-04-07T16:00:05;101833.03;;;10.29;40.74
63405;BME280;49541;57.840;12.306;2023-04-07T16:05:05;101829.75;;;9.69;42.61
63405;BME280;49541;57.840;12.306;2023-04-07T16:10:07;101840.00;;;9.75;42.63
63405;BME280;49541;57.840;12.306;2023-04-07T16:15:07;101835.25;;;9.80;42.32
63405;BME280;49541;57.840;12.306;2023-04-07T16:20:10;101833.69;;;9.49;43.26
63405;BME280;49541;57.840;12.306;2023-04-07T16:25:13;101851.03;;;9.55;43.52
63405;BME280;49541;57.840;12.306;2023-04-07T16:30:14;101846.13;;;9.34;44.11
63405;BME280;49541;57.840;12.306;2023-04-07T16:35:15;101853.97;;;9.07;45.00
63405;BME280;49541;57.840;12.306;2023-04-07T16:40:15;101860.72;;;9.13;44.25
63405;BME280;49541;57.840;12.306;2023-04-07T16:45:15;101862.25;;;9.17;44.43
63405;BME280;49541;57.840;12.306;2023-04-07T16:50:16;101859.34;;;8.91;44.89
63405;BME280;49541;57.840;12.306;2023-04-07T16:55:16;101861.69;;;8.81;45.49
63405;BME280;49541;57.840;12.306;2023-04-07T17:00:16;101871.59;;;8.64;45.57
63405;BME280;49541;57.840;12.306;2023-04-07T17:05:18;101860.84;;;8.51;46.48
63405;BME280;49541;57.840;12.306;2023-04-07T17:10:18;101868.03;;;8.79;45.84
63405;BME280;49541;57.840;12.306;2023-04-07T17:15:18;101868.72;;;8.52;46.44
63405;BME280;49541;57.840;12.306;2023-04-07T17:20:19;101872.66;;;8.45;46.93
63405;BME280;49541;57.840;12.306;2023-04-07T17:25:21;101880.88;;;8.40;47.25
63405;BME280;49541;57.840;12.306;2023-04-07T17:30:21;101874.81;;;8.23;46.88
63405;BME280;49541;57.840;12.306;2023-04-07T17:35:21;101891.66;;;8.21;47.17
63405;BME280;49541;57.840;12.306;2023-04-07T17:40:22;101892.69;;;8.03;47.58
63405;BME280;49541;57.840;12.306;2023-04-07T17:45:22;101889.94;;;8.20;48.14
63405;BME280;49541;57.840;12.306;2023-04-07T17:50:22;101895.16;;;8.06;48.48
63405;BME280;49541;57.840;12.306;2023-04-07T17:55:23;101904.50;;;8.13;48.46
63405;BME280;49541;57.840;12.306;2023-04-07T18:00:23;101902.63;;;8.15;48.46
63405;BME280;49541;57.840;12.306;2023-04-07T18:05:25;101902.88;;;7.95;49.24
63405;BME280;49541;57.840;12.306;2023-04-07T18:10:25;101916.38;;;7.90;49.27
63405;BME280;49541;57.840;12.306;2023-04-07T18:15:26;101916.91;;;7.97;49.24
63405;BME280;49541;57.840;12.306;2023-04-07T18:20:27;101912.44;;;7.97;49.13
63405;BME280;49541;57.840;12.306;2023-04-07T18:25:27;101923.00;;;7.66;50.26
63405;BME280;49541;57.840;12.306;2023-04-07T18:30:27;101924.47;;;7.71;50.31
63405;BME280;49541;57.840;12.306;2023-04-07T18:35:27;101931.91;;;7.65;50.41
63405;BME280;49541;57.840;12.306;2023-04-07T18:40:27;101933.84;;;7.61;50.33
63405;BME280;49541;57.840;12.306;2023-04-07T18:45:31;101938.56;;;7.38;50.82
63405;BME280;49541;57.840;12.306;2023-04-07T18:50:35;101937.72;;;7.38;51.60
63405;BME280;49541;57.840;12.306;2023-04-07T18:55:35;101945.06;;;7.66;50.53
63405;BME280;49541;57.840;12.306;2023-04-07T19:00:36;101952.44;;;7.44;50.39
63405;BME280;49541;57.840;12.306;2023-04-07T19:05:36;101955.31;;;7.39;51.01
63405;BME280;49541;57.840;12.306;2023-04-07T19:10:38;101966.41;;;7.30;50.44
63405;BME280;49541;57.840;12.306;2023-04-07T19:15:38;101967.72;;;7.21;50.49
63405;BME280;49541;57.840;12.306;2023-04-07T19:20:39;101968.50;;;7.23;50.59
63405;BME280;49541;57.840;12.306;2023-04-07T19:25:40;101966.00;;;7.37;50.10
63405;BME280;49541;57.840;12.306;2023-04-07T19:30:41;101972.00;;;7.24;49.72
63405;BME280;49541;57.840;12.306;2023-04-07T19:35:41;101972.19;;;7.21;49.77
63405;BME280;49541;57.840;12.306;2023-04-07T19:40:41;101968.41;;;7.25;49.34
63405;BME280;49541;57.840;12.306;2023-04-07T19:45:42;101966.88;;;7.21;50.25
63405;BME280;49541;57.840;12.306;2023-04-07T19:50:42;101971.16;;;7.23;49.98
63405;BME280;49541;57.840;12.306;2023-04-07T19:55:45;101971.94;;;7.25;49.17
63405;BME280;49541;57.840;12.306;2023-04-07T20:00:45;101969.84;;;7.14;49.66
63405;BME280;49541;57.840;12.306;2023-04-07T20:05:48;101973.34;;;7.32;49.29
63405;BME280;49541;57.840;12.306;2023-04-07T20:10:49;101979.88;;;7.08;50.42
63405;BME280;49541;57.840;12.306;2023-04-07T20:15:50;101983.69;;;7.02;50.71
63405;BME280;49541;57.840;12.306;2023-04-07T20:20:56;101973.94;;;7.03;51.08
63405;BME280;49541;57.840;12.306;2023-04-07T20:25:56;101978.16;;;7.07;50.96
63405;BME280;49541;57.840;12.306;2023-04-07T20:30:57;101980.50;;;7.13;51.27
63405;BME280;49541;57.840;12.306;2023-04-07T20:35:57;101980.94;;;6.86;52.51
63405;BME280;49541;57.840;12.306;2023-04-07T20:40:58;101991.00;;;6.97;52.10
63405;BME280;49541;57.840;12.306;2023-04-07T20:45:58;101995.25;;;6.82;52.95
63405;BME280;49541;57.840;12.306;2023-04-07T20:50:58;101993.38;;;6.67;53.35
63405;BME280;49541;57.840;12.306;2023-04-07T20:55:58;101986.50;;;6.63;53.71
63405;BME280;49541;57.840;12.306;2023-04-07T21:00:59;101992.06;;;6.75;54.03
63405;BME280;49541;57.840;12.306;2023-04-07T21:05:59;101992.34;;;6.69;53.83
63405;BME280;49541;57.840;12.306;2023-04-07T21:11:00;101996.66;;;6.53;53.99
63405;BME280;49541;57.840;12.306;2023-04-07T21:16:00;101997.25;;;6.77;52.96
63405;BME280;49541;57.840;12.306;2023-04-07T21:21:02;102000.53;;;6.46;54.00
63405;BME280;49541;57.840;12.306;2023-04-07T21:26:03;101992.22;;;6.53;53.97
63405;BME280;49541;57.840;12.306;2023-04-07T21:31:03;101989.78;;;6.68;53.18
63405;BME280;49541;57.840;12.306;2023-04-07T21:36:04;101990.22;;;6.59;53.54
63405;BME280;49541;57.840;12.306;2023-04-07T21:41:05;101988.50;;;6.57;53.85
63405;BME280;49541;57.840;12.306;2023-04-07T21:46:05;101982.91;;;6.64;53.40
63405;BME280;49541;57.840;12.306;2023-04-07T21:51:06;101986.00;;;6.54;53.30
63405;BME280;49541;57.840;12.306;2023-04-07T21:56:07;101983.53;;;6.69;53.54
63405;BME280;49541;57.840;12.306;2023-04-07T22:01:12;101989.72;;;6.69;53.72
63405;BME280;49541;57.840;12.306;2023-04-07T22:06:12;101982.00;;;6.46;54.48
63405;BME280;49541;57.840;12.306;2023-04-07T22:11:13;101980.66;;;6.37;54.87
63405;BME280;49541;57.840;12.306;2023-04-07T22:16:13;101984.88;;;6.41;55.72
63405;BME280;49541;57.840;12.306;2023-04-07T22:21:13;101984.78;;;6.43;55.44
63405;BME280;49541;57.840;12.306;2023-04-07T22:26:13;101998.22;;;6.38;55.19
63405;BME280;49541;57.840;12.306;2023-04-07T22:31:13;101986.81;;;6.38;55.95
63405;BME280;49541;57.840;12.306;2023-04-07T22:36:14;101996.66;;;6.34;55.77
63405;BME280;49541;57.840;12.306;2023-04-07T22:41:14;101994.50;;;6.23;56.14
63405;BME280;49541;57.840;12.306;2023-04-07T22:46:14;101990.78;;;6.27;55.82
63405;BME280;49541;57.840;12.306;2023-04-07T22:51:16;102001.38;;;6.27;56.12
63405;BME280;49541;57.840;12.306;2023-04-07T22:56:16;102001.72;;;6.39;55.74
63405;BME280;49541;57.840;12.306;2023-04-07T23:01:18;101998.50;;;6.32;56.17
63405;BME280;49541;57.840;12.306;2023-04-07T23:06:18;101994.22;;;6.29;55.76
63405;BME280;49541;57.840;12.306;2023-04-07T23:11:18;101993.81;;;6.20;56.11
63405;BME280;49541;57.840;12.306;2023-04-07T23:16:18;101996.31;;;6.23;56.07
63405;BME280;49541;57.840;12.306;2023-04-07T23:21:18;101992.81;;;6.41;55.51
63405;BME280;49541;57.840;12.306;2023-04-07T23:26:19;102002.16;;;6.29;55.62
63405;BME280;49541;57.840;12.306;2023-04-07T23:31:19;101995.25;;;6.46;55.52
63405;BME280;49541;57.840;12.306;2023-04-07T23:36:19;101995.50;;;6.02;56.62
63405;BME280;49541;57.840;12.306;2023-04-07T23:41:19;101994.69;;;6.00;57.28
63405;BME280;49541;57.840;12.306;2023-04-07T23:46:20;101995.66;;;5.99;57.59
63405;BME280;49541;57.840;12.306;2023-04-07T23:51:20;101993.66;;;6.23;56.42
63405;BME280;49541;57.840;12.306;2023-04-07T23:56:21;101999.22;;;6.17;56.72
